createdAt,value
2018-04-18T00:02:26.399Z,9.60
2018-04-18T00:04:54.762Z,9.30
2018-04-18T00:07:23.134Z,10.23
2018-04-18T00:09:51.513Z,9.87
2018-04-18T00:12:19.875Z,10.07
2018-04-18T00:14:48.534Z,9.50
2018-04-18T00:17:17.704Z,10.43
2018-04-18T00:19:46.256Z,11.10
2018-04-18T00:22:14.694Z,10.17
2018-04-18T00:24:44.707Z,10.83
2018-04-18T00:27:14.335Z,10.77
2018-04-18T00:29:43.504Z,11.10
2018-04-18T00:32:11.991Z,10.67
2018-04-18T00:34:41.191Z,11.07
2018-04-18T00:37:10.829Z,10.30
2018-04-18T00:39:39.550Z,11.83
2018-04-18T00:42:07.946Z,10.20
2018-04-18T00:44:36.377Z,12.30
2018-04-18T00:47:04.824Z,11.63
2018-04-18T00:49:33.939Z,10.80
2018-04-18T00:52:02.347Z,11.00
2018-04-18T00:54:31.045Z,10.90
2018-04-18T00:56:59.405Z,11.50
2018-04-18T00:59:27.800Z,10.77
2018-04-18T01:01:56.158Z,11.03
2018-04-18T01:04:25.441Z,10.50
2018-04-18T01:06:54.301Z,11.17
2018-04-18T01:09:23.526Z,10.70
2018-04-18T01:11:51.935Z,10.30
2018-04-18T01:14:20.320Z,11.60
2018-04-18T01:16:48.727Z,10.27
2018-04-18T01:19:17.188Z,10.10
2018-04-18T01:21:45.549Z,10.03
2018-04-18T01:24:14.346Z,10.23
2018-04-18T01:26:43.513Z,10.93
2018-04-18T01:29:11.962Z,9.98
2018-04-18T01:31:40.341Z,10.10
2018-04-18T01:34:08.717Z,10.13
2018-04-18T01:36:37.936Z,9.40
2018-04-18T01:39:07.128Z,9.23
2018-04-18T01:41:36.284Z,10.30
2018-04-18T01:44:05.102Z,10.10
2018-04-18T01:46:34.230Z,10.30
2018-04-18T01:49:20.581Z,9.97
2018-04-18T01:51:49.010Z,10.80
2018-04-18T01:54:17.400Z,10.17
2018-04-18T01:56:45.828Z,10.70
2018-04-18T01:59:14.225Z,9.80
2018-04-18T02:01:43.361Z,9.50
2018-04-18T02:04:11.778Z,9.85
2018-04-18T02:06:40.165Z,9.87
2018-04-18T02:09:08.558Z,9.57
2018-04-18T02:11:36.908Z,9.90
2018-04-18T02:14:05.308Z,9.47
2018-04-18T02:16:34.457Z,10.57
2018-04-18T02:19:02.936Z,10.63
2018-04-18T02:21:31.371Z,10.07
2018-04-18T02:23:59.749Z,10.67
2018-04-18T02:26:28.149Z,10.13
2018-04-18T02:28:57.424Z,10.00
2018-04-18T02:31:25.801Z,10.33
2018-04-18T02:33:54.244Z,9.60
2018-04-18T02:36:22.947Z,10.63
2018-04-18T02:38:51.333Z,10.13
2018-04-18T02:41:19.764Z,9.50
2018-04-18T02:43:48.147Z,10.53
2018-04-18T02:46:16.524Z,10.77
2018-04-18T02:48:44.999Z,11.20
2018-04-18T02:51:13.377Z,11.23
2018-04-18T02:53:42.973Z,10.70
2018-04-18T02:56:11.384Z,10.87
2018-04-18T02:58:39.771Z,11.13
2018-04-18T03:01:08.218Z,11.43
2018-04-18T03:03:37.449Z,11.37
2018-04-18T03:06:05.903Z,11.27
2018-04-18T03:08:34.270Z,11.57
2018-04-18T03:11:03.408Z,11.30
2018-04-18T03:13:32.515Z,11.77
2018-04-18T03:16:02.439Z,11.57
2018-04-18T03:18:30.821Z,11.43
2018-04-18T03:20:59.206Z,10.90
2018-04-18T03:23:27.583Z,11.17
2018-04-18T03:25:56.020Z,11.70
2018-04-18T03:28:24.355Z,11.57
2018-04-18T03:30:53.533Z,11.70
2018-04-18T03:33:21.951Z,11.53
2018-04-18T03:35:51.816Z,11.40
2018-04-18T03:38:20.239Z,11.93
2018-04-18T03:40:48.730Z,12.47
2018-04-18T03:43:17.934Z,11.90
2018-04-18T03:45:46.334Z,11.70
2018-04-18T03:48:14.833Z,12.30
2018-04-18T03:50:43.212Z,12.00
2018-04-18T03:53:11.626Z,11.17
2018-04-18T03:55:40.830Z,12.20
2018-04-18T03:58:10.034Z,12.37
2018-04-18T04:00:38.432Z,13.30
2018-04-18T04:03:06.797Z,12.53
2018-04-18T04:05:35.945Z,12.57
2018-04-18T04:08:04.422Z,12.27
2018-04-18T04:10:32.830Z,12.43
2018-04-18T04:13:02.843Z,12.10
2018-04-18T04:15:31.279Z,12.30
2018-04-18T04:18:18.833Z,12.57
2018-04-18T04:21:05.596Z,12.53
2018-04-18T04:23:51.667Z,13.33
2018-04-18T04:26:22.615Z,13.10
2018-04-18T04:28:51.848Z,12.90
2018-04-18T04:31:20.617Z,13.03
2018-04-18T04:33:51.182Z,13.00
2018-04-18T04:36:20.506Z,12.80
2018-04-18T04:38:49.684Z,12.50
2018-04-18T04:41:20.405Z,12.07
2018-04-18T04:43:48.904Z,12.27
2018-04-18T04:46:17.468Z,12.03
2018-04-18T04:48:45.883Z,13.03
2018-04-18T04:51:14.265Z,12.53
2018-04-18T04:53:42.702Z,12.53
2018-04-18T04:56:11.925Z,12.80
2018-04-18T04:58:40.308Z,12.73
2018-04-18T05:01:09.724Z,13.07
2018-04-18T05:03:39.489Z,13.23
2018-04-18T05:06:08.601Z,12.90
2018-04-18T05:08:37.253Z,12.17
2018-04-18T05:11:05.669Z,12.97
2018-04-18T05:13:34.057Z,12.70
2018-04-18T05:16:02.466Z,13.03
2018-04-18T05:18:30.915Z,12.87
2018-04-18T05:20:59.420Z,13.13
2018-04-18T05:23:28.612Z,13.70
2018-04-18T05:25:57.048Z,13.83
2018-04-18T05:28:25.532Z,14.30
2018-04-18T05:30:53.994Z,14.33
2018-04-18T05:33:22.480Z,13.63
2018-04-18T05:35:52.461Z,14.30
2018-04-18T05:38:20.863Z,13.43
2018-04-18T05:40:49.272Z,13.90
2018-04-18T05:43:18.578Z,12.97
2018-04-18T05:45:47.808Z,14.00
2018-04-18T05:48:16.293Z,14.20
2018-04-18T05:50:44.662Z,13.53
2018-04-18T05:53:13.067Z,13.33
2018-04-18T05:55:42.630Z,12.87
2018-04-18T05:58:11.877Z,12.97
2018-04-18T06:00:41.918Z,13.20
2018-04-18T06:03:10.450Z,11.77
2018-04-18T06:05:38.850Z,12.33
2018-04-18T06:08:09.453Z,11.70
2018-04-18T06:10:37.885Z,13.73
2018-04-18T06:13:06.413Z,13.10
2018-04-18T06:15:34.835Z,12.60
2018-04-18T06:18:04.357Z,12.33
2018-04-18T06:20:33.599Z,12.43
2018-04-18T06:23:02.702Z,11.90
2018-04-18T06:25:31.123Z,12.73
2018-04-18T06:28:00.964Z,12.67
2018-04-18T06:30:29.316Z,12.90
2018-04-18T06:32:57.713Z,12.17
2018-04-18T06:35:26.106Z,12.77
2018-04-18T06:37:55.337Z,12.07
2018-04-18T06:40:23.805Z,11.90
2018-04-18T06:42:52.233Z,11.40
2018-04-18T06:45:20.667Z,12.60
2018-04-18T06:47:49.194Z,11.97
2018-04-18T06:50:17.604Z,12.13
2018-04-18T06:52:45.973Z,11.30
2018-04-18T06:55:15.056Z,11.50
2018-04-18T06:57:43.446Z,11.93
2018-04-18T07:00:11.846Z,11.80
2018-04-18T07:02:40.214Z,10.97
2018-04-18T07:05:09.475Z,11.50
2018-04-18T07:07:41.534Z,10.97
2018-04-18T07:10:11.671Z,10.30
2018-04-18T07:12:40.799Z,11.17
2018-04-18T07:15:10.004Z,11.23
2018-04-18T07:17:38.746Z,17.17
2018-04-18T07:20:08.697Z,17.37
2018-04-18T07:22:37.103Z,14.00
2018-04-18T07:25:05.469Z,11.73
2018-04-18T07:27:33.822Z,10.57
2018-04-18T07:30:02.265Z,11.13
2018-04-18T07:32:31.437Z,11.60
2018-04-18T07:35:00.110Z,10.90
2018-04-18T07:37:28.517Z,11.37
2018-04-18T07:39:56.997Z,10.80
2018-04-18T07:42:26.163Z,10.67
2018-04-18T07:44:54.859Z,10.90
2018-04-18T07:47:23.307Z,11.50
2018-04-18T07:49:51.756Z,11.17
2018-04-18T07:52:20.196Z,13.23
2018-04-18T07:54:48.637Z,11.67
2018-04-18T07:57:17.872Z,11.90
2018-04-18T07:59:46.319Z,11.43
2018-04-18T08:02:14.958Z,12.87
2018-04-18T08:04:43.949Z,13.53
2018-04-18T08:07:14.585Z,14.47
2018-04-18T08:09:42.990Z,13.03
2018-04-18T08:12:12.525Z,14.70
2018-04-18T08:14:41.502Z,14.23
2018-04-18T08:17:09.933Z,14.03
2018-04-18T08:19:38.377Z,13.13
2018-04-18T08:22:07.597Z,13.47
2018-04-18T08:24:36.167Z,12.03
2018-04-18T08:27:04.738Z,11.77
2018-04-18T08:29:33.858Z,16.27
2018-04-18T08:32:03.057Z,15.97
2018-04-18T08:34:31.432Z,15.37
2018-04-18T08:36:59.800Z,14.83
2018-04-18T08:39:29.007Z,14.87
2018-04-18T08:41:58.278Z,14.10
2018-04-18T08:44:26.654Z,14.73
2018-04-18T08:46:55.827Z,14.43
2018-04-18T08:49:24.233Z,14.30
2018-04-18T08:51:52.675Z,16.63
2018-04-18T08:54:21.050Z,16.70
2018-04-18T08:56:50.804Z,17.50
2018-04-18T08:59:19.352Z,17.57
2018-04-18T09:01:47.862Z,15.30
2018-04-18T09:04:17.921Z,16.60
2018-04-18T09:06:46.287Z,14.67
2018-04-18T09:09:14.665Z,15.63
2018-04-18T09:11:43.355Z,16.80
2018-04-18T09:14:11.741Z,14.87
2018-04-18T09:16:40.146Z,17.20
2018-04-18T09:19:08.603Z,16.87
2018-04-18T09:21:38.473Z,16.47
2018-04-18T09:24:08.441Z,15.30
2018-04-18T09:26:38.047Z,15.77
2018-04-18T09:29:09.104Z,16.52
2018-04-18T09:31:39.719Z,16.90
2018-04-18T09:34:08.115Z,16.77
2018-04-18T09:36:36.543Z,16.33
2018-04-18T09:39:05.014Z,16.27
2018-04-18T09:41:34.243Z,14.23
2018-04-18T09:44:02.639Z,15.53
2018-04-18T09:46:31.852Z,16.70
2018-04-18T09:49:00.225Z,16.57
2018-04-18T09:51:28.668Z,17.60
2018-04-18T09:53:57.065Z,18.80
2018-04-18T09:56:25.456Z,18.07
2018-04-18T09:58:53.951Z,19.23
2018-04-18T10:01:22.425Z,18.17
2018-04-18T10:03:56.530Z,17.97
2018-04-18T10:06:24.999Z,18.27
2018-04-18T10:08:53.396Z,19.40
2018-04-18T10:11:21.850Z,18.23
2018-04-18T10:13:50.952Z,20.07
2018-04-18T10:16:19.517Z,19.23
2018-04-18T10:18:47.896Z,18.43
2018-04-18T10:21:16.294Z,21.27
2018-04-18T10:23:44.719Z,21.37
2018-04-18T10:26:13.946Z,21.07
2018-04-18T10:28:43.203Z,18.70
2018-04-18T10:31:11.706Z,20.37
2018-04-18T10:33:40.847Z,19.97
2018-04-18T10:36:10.045Z,19.93
2018-04-18T10:38:38.494Z,19.57
2018-04-18T10:41:09.290Z,18.37
2018-04-18T10:43:37.824Z,17.40
2018-04-18T10:46:06.199Z,17.50
2018-04-18T10:48:35.346Z,16.10
2018-04-18T10:51:03.789Z,15.60
2018-04-18T10:53:32.219Z,14.87
2018-04-18T10:56:02.218Z,14.50
2018-04-18T10:58:30.679Z,15.23
2018-04-18T11:00:59.152Z,14.90
2018-04-18T11:03:28.046Z,19.60
2018-04-18T11:05:56.495Z,16.30
2018-04-18T11:08:24.863Z,16.63
2018-04-18T11:10:54.878Z,15.53
2018-04-18T11:13:23.254Z,15.27
2018-04-18T11:15:52.687Z,17.03
2018-04-18T11:18:21.115Z,16.10
2018-04-18T11:20:49.568Z,15.83
2018-04-18T11:23:18.015Z,13.20
2018-04-18T11:25:47.213Z,12.90
2018-04-18T11:28:16.414Z,13.87
2018-04-18T11:30:45.591Z,14.00
2018-04-18T11:33:13.998Z,14.30
2018-04-18T11:35:42.535Z,14.60
2018-04-18T11:38:10.962Z,14.47
2018-04-18T11:40:39.339Z,13.60
2018-04-18T11:43:07.717Z,13.53
2018-04-18T11:45:36.112Z,13.07
2018-04-18T11:48:04.514Z,11.10
2018-04-18T11:50:32.911Z,14.40
2018-04-18T11:55:26.538Z,11.27
2018-04-18T11:57:54.935Z,11.33
2018-04-18T12:00:23.430Z,11.32
2018-04-18T12:02:51.812Z,13.10
2018-04-18T12:05:20.192Z,13.07
2018-04-18T12:07:49.596Z,13.50
2018-04-18T12:10:18.085Z,12.95
2018-04-18T12:12:46.972Z,12.77
2018-04-18T12:15:15.337Z,12.80
2018-04-18T12:17:43.702Z,14.55
2018-04-18T12:20:12.104Z,13.65
2018-04-18T12:22:41.225Z,13.85
2018-04-18T12:25:09.598Z,13.38
2018-04-18T12:27:38.051Z,14.05
2018-04-18T12:30:06.534Z,13.52
2018-04-18T12:32:34.948Z,14.52
2018-04-18T12:35:03.469Z,13.73
2018-04-18T12:37:31.929Z,13.50
2018-04-18T12:40:01.074Z,12.18
2018-04-18T12:42:29.479Z,11.90
2018-04-18T12:44:58.029Z,13.52
2018-04-18T12:47:26.618Z,13.48
2018-04-18T12:49:54.997Z,15.77
2018-04-18T12:52:23.359Z,12.95
2018-04-18T12:54:51.732Z,14.90
2018-04-18T12:57:20.093Z,14.90
2018-04-18T12:59:50.071Z,16.80
2018-04-18T13:02:18.428Z,13.97
2018-04-18T13:04:46.980Z,13.07
2018-04-18T13:07:15.885Z,13.77
2018-04-18T13:09:47.447Z,15.30
2018-04-18T13:12:15.822Z,14.55
2018-04-18T13:14:44.199Z,14.70
2018-04-18T13:17:12.584Z,17.33
2018-04-18T13:19:41.027Z,15.40
2018-04-18T13:22:10.129Z,15.03
2018-04-18T13:24:39.281Z,13.30
2018-04-18T13:27:08.694Z,12.25
2018-04-18T13:29:39.628Z,12.63
2018-04-18T13:32:09.668Z,12.77
2018-04-18T13:34:38.866Z,12.70
2018-04-18T13:37:08.022Z,12.80
2018-04-18T13:39:36.500Z,13.05
2018-04-18T13:42:05.065Z,12.70
2018-04-18T13:44:34.092Z,11.88
2018-04-18T13:47:03.443Z,13.77
2018-04-18T13:49:33.517Z,12.73
2018-04-18T13:52:01.912Z,12.48
2018-04-18T13:54:31.189Z,13.00
2018-04-18T13:56:59.558Z,12.52
2018-04-18T13:59:27.944Z,14.17
2018-04-18T14:01:56.338Z,12.23
2018-04-18T14:04:25.067Z,13.45
2018-04-18T14:06:54.212Z,13.27
2018-04-18T14:09:22.618Z,14.55
2018-04-18T14:11:52.744Z,15.65
2018-04-18T14:14:22.298Z,11.93
2018-04-18T14:16:50.721Z,11.63
2018-04-18T14:19:19.863Z,11.93
2018-04-18T14:21:48.279Z,12.10
2018-04-18T14:24:16.772Z,11.20
2018-04-18T14:26:45.440Z,11.43
2018-04-18T14:29:14.034Z,10.66
2018-04-18T14:31:42.554Z,12.05
2018-04-18T14:34:12.030Z,12.77
2018-04-18T14:36:40.432Z,12.93
2018-04-18T14:39:10.438Z,14.65
2018-04-18T14:41:39.545Z,14.35
2018-04-18T14:44:09.618Z,17.08
2018-04-18T14:46:39.329Z,16.00
2018-04-18T14:49:07.677Z,14.82
2018-04-18T14:51:36.784Z,16.83
2018-04-18T14:54:05.222Z,14.50
2018-04-18T14:56:34.388Z,12.95
2018-04-18T14:59:02.777Z,13.27
2018-04-18T15:01:31.993Z,12.63
2018-04-18T15:04:01.189Z,13.20
2018-04-18T15:06:30.330Z,12.52
2018-04-18T15:08:58.716Z,14.05
2018-04-18T15:11:27.094Z,12.83
2018-04-18T15:13:55.432Z,14.15
2018-04-18T15:16:23.782Z,15.02
2018-04-18T15:18:52.934Z,15.02
2018-04-18T15:21:22.092Z,15.68
2018-04-18T15:23:52.027Z,14.13
2018-04-18T15:26:23.149Z,15.30
2018-04-18T15:28:51.587Z,12.55
2018-04-18T15:31:19.961Z,14.30
2018-04-18T15:33:48.394Z,12.07
2018-04-18T15:36:16.760Z,11.98
2018-04-18T15:38:45.522Z,10.95
2018-04-18T15:41:14.749Z,10.34
2018-04-18T15:43:43.821Z,9.40
2018-04-18T15:46:12.222Z,10.20
2018-04-18T15:48:41.078Z,10.57
2018-04-18T15:51:09.743Z,12.20
2018-04-18T15:53:38.089Z,10.38
2018-04-18T15:56:07.244Z,11.32
2018-04-18T15:58:36.452Z,12.02
2018-04-18T16:01:04.821Z,11.15
2018-04-18T16:03:33.197Z,11.23
2018-04-18T16:06:02.239Z,13.40
2018-04-18T16:08:31.401Z,14.00
2018-04-18T16:11:01.530Z,12.95
2018-04-18T16:13:29.979Z,14.13
2018-04-18T16:15:58.382Z,10.90
2018-04-18T16:18:27.658Z,11.60
2018-04-18T16:20:56.113Z,12.65
2018-04-18T16:23:24.531Z,12.60
2018-04-18T16:25:55.410Z,12.35
2018-04-18T16:28:23.914Z,12.20
2018-04-18T16:30:52.296Z,15.05
2018-04-18T16:33:22.402Z,14.40
2018-04-18T16:35:50.791Z,13.82
2018-04-18T16:38:19.289Z,14.05
2018-04-18T16:40:48.548Z,14.80
2018-04-18T16:43:18.945Z,14.38
2018-04-18T16:45:47.683Z,16.73
2018-04-18T16:48:16.923Z,14.40
2018-04-18T16:50:45.374Z,14.05
2018-04-18T16:53:13.788Z,14.50
2018-04-18T16:55:42.174Z,12.80
2018-04-18T16:58:12.065Z,13.77
2018-04-18T17:00:40.620Z,12.77
2018-04-18T17:03:09.060Z,11.75
2018-04-18T17:05:37.422Z,12.55
2018-04-18T17:08:05.833Z,13.13
2018-04-18T17:10:34.939Z,10.95
2018-04-18T17:13:04.050Z,11.55
2018-04-18T17:15:32.482Z,10.60
2018-04-18T17:18:00.964Z,11.18
2018-04-18T17:20:30.037Z,11.63
2018-04-18T17:22:59.440Z,12.43
2018-04-18T17:25:27.889Z,10.57
2018-04-18T17:28:01.525Z,12.85
2018-04-18T17:30:31.345Z,12.10
2018-04-18T17:33:01.455Z,11.98
2018-04-18T17:35:29.862Z,10.57
2018-04-18T17:37:59.903Z,12.63
2018-04-18T17:40:29.154Z,13.90
2018-04-18T17:42:57.579Z,13.77
2018-04-18T17:45:26.807Z,13.57
2018-04-18T17:47:55.266Z,12.40
2018-04-18T17:50:23.770Z,12.00
2018-04-18T17:52:52.197Z,13.37
2018-04-18T17:55:20.746Z,13.20
2018-04-18T17:57:49.208Z,12.82
2018-04-18T18:00:17.794Z,11.60
2018-04-18T18:02:46.640Z,10.93
2018-04-18T18:05:15.130Z,12.40
2018-04-18T18:07:44.308Z,11.50
2018-04-18T18:10:12.747Z,11.03
2018-04-18T18:12:41.094Z,10.38
2018-04-18T18:15:11.014Z,11.07
2018-04-18T18:17:41.224Z,10.70
2018-04-18T18:20:10.464Z,10.60
2018-04-18T18:22:38.956Z,12.10
2018-04-18T18:25:07.521Z,13.07
2018-04-18T18:27:36.890Z,12.23
2018-04-18T18:30:05.404Z,12.23
2018-04-18T18:32:34.248Z,12.13
2018-04-18T18:35:02.637Z,11.40
2018-04-18T18:37:32.332Z,12.20
2018-04-18T18:40:01.526Z,11.60
2018-04-18T18:42:29.950Z,11.77
2018-04-18T18:44:58.413Z,11.17
2018-04-18T18:47:27.545Z,11.37
2018-04-18T18:49:56.049Z,11.97
2018-04-18T18:52:24.425Z,12.60
2018-04-18T18:54:52.789Z,12.73
2018-04-18T18:57:21.125Z,13.20
2018-04-18T18:59:50.277Z,13.40
2018-04-18T19:02:19.770Z,12.77
2018-04-18T19:04:48.173Z,12.83
2018-04-18T19:07:16.664Z,12.97
2018-04-18T19:09:45.100Z,13.27
2018-04-18T19:12:14.339Z,14.07
2018-04-18T19:14:42.779Z,14.60
2018-04-18T19:17:11.184Z,13.70
2018-04-18T19:19:39.546Z,13.87
2018-04-18T19:22:08.035Z,13.03
2018-04-18T19:24:36.574Z,13.43
2018-04-18T19:27:05.736Z,14.27
2018-04-18T19:29:34.108Z,13.60
2018-04-18T19:32:02.542Z,14.03
2018-04-18T19:34:31.052Z,14.20
2018-04-18T19:36:59.661Z,13.77
2018-04-18T19:39:28.031Z,13.87
2018-04-18T19:41:57.232Z,14.00
2018-04-18T19:44:25.611Z,15.77
2018-04-18T19:46:54.015Z,15.87
2018-04-18T19:49:22.401Z,14.43
2018-04-18T19:51:52.385Z,14.73
2018-04-18T19:54:20.763Z,16.37
2018-04-18T19:56:49.256Z,16.47
2018-04-18T19:59:17.757Z,16.63
2018-04-18T20:01:46.125Z,16.13
2018-04-18T20:07:45.981Z,16.03
2018-04-18T20:10:14.431Z,15.83
2018-04-18T20:12:42.775Z,17.20
2018-04-18T20:15:11.195Z,17.53
2018-04-18T20:17:39.641Z,18.17
2018-04-18T20:20:08.064Z,18.20
2018-04-18T20:22:36.709Z,18.07
2018-04-18T20:25:05.050Z,17.33
2018-04-18T20:27:33.475Z,18.70
2018-04-18T20:30:02.909Z,17.63
2018-04-18T20:32:32.358Z,17.53
2018-04-18T20:35:00.684Z,17.60
2018-04-18T20:37:29.098Z,17.37
2018-04-18T20:39:58.082Z,16.73
2018-04-18T20:42:27.249Z,17.27
2018-04-18T20:44:55.611Z,18.03
2018-04-18T20:47:24.540Z,17.03
2018-04-18T20:49:53.710Z,16.80
2018-04-18T20:52:22.204Z,18.23
2018-04-18T20:54:50.573Z,16.90
2018-04-18T20:57:19.946Z,18.40
2018-04-18T20:59:48.334Z,16.57
2018-04-18T21:02:16.750Z,17.10
2018-04-18T21:04:47.642Z,18.57
2018-04-18T21:07:16.035Z,17.73
2018-04-18T21:09:44.496Z,18.47
2018-04-18T21:12:12.907Z,17.70
2018-04-18T21:14:41.308Z,18.50
2018-04-18T21:17:09.695Z,18.33
2018-04-18T21:19:38.813Z,18.70
2018-04-18T21:22:07.196Z,18.63
2018-04-18T21:24:35.562Z,17.90
2018-04-18T21:27:04.731Z,19.70
2018-04-18T21:29:33.068Z,18.67
2018-04-18T21:32:01.482Z,18.90
2018-04-18T21:34:30.829Z,18.97
2018-04-18T21:36:59.219Z,19.20
2018-04-18T21:39:27.622Z,18.30
2018-04-18T21:41:56.095Z,18.47
2018-04-18T21:44:24.465Z,18.73
2018-04-18T21:46:52.857Z,18.57
2018-04-18T21:49:21.225Z,18.33
2018-04-18T21:51:49.581Z,18.53
2018-04-18T21:54:17.919Z,19.17
2018-04-18T21:56:46.371Z,19.80
2018-04-18T21:59:14.735Z,19.00
2018-04-18T22:01:43.088Z,18.80
2018-04-18T22:04:12.205Z,18.93
2018-04-18T22:06:41.515Z,18.93
2018-04-18T22:09:10.882Z,18.53
2018-04-18T22:11:40.232Z,19.87
2018-04-18T22:14:08.645Z,18.50
2018-04-18T22:16:37.789Z,19.83
2018-04-18T22:19:06.190Z,19.90
2018-04-18T22:21:34.574Z,19.33
2018-04-18T22:24:02.935Z,19.20
2018-04-18T22:26:31.323Z,19.87
2018-04-18T22:28:59.675Z,19.97
2018-04-18T22:31:28.055Z,18.47
2018-04-18T22:33:56.402Z,19.10
2018-04-18T22:36:27.919Z,20.20
2018-04-18T22:38:56.291Z,18.47
2018-04-18T22:41:25.021Z,18.87
2018-04-18T22:43:54.490Z,19.20
2018-04-18T22:46:22.869Z,19.90
2018-04-18T22:48:51.256Z,18.40
2018-04-18T22:51:19.665Z,19.53
2018-04-18T22:53:48.794Z,19.33
2018-04-18T22:56:17.206Z,19.33
2018-04-18T22:58:45.676Z,20.60
2018-04-18T23:01:14.135Z,19.13
2018-04-18T23:03:42.490Z,19.57
2018-04-18T23:06:10.989Z,19.60
2018-04-18T23:08:39.346Z,18.43
2018-04-18T23:11:08.448Z,18.77
2018-04-18T23:13:36.809Z,19.47
2018-04-18T23:16:05.922Z,18.93
2018-04-18T23:18:34.343Z,18.23
2018-04-18T23:21:02.825Z,19.23
2018-04-18T23:23:31.188Z,18.83
2018-04-18T23:25:59.576Z,19.20
2018-04-18T23:28:27.930Z,19.87
2018-04-18T23:30:56.406Z,19.43
2018-04-18T23:33:24.779Z,19.37
2018-04-18T23:35:53.169Z,19.00
2018-04-18T23:38:21.858Z,19.47
2018-04-18T23:40:51.078Z,19.47
2018-04-18T23:43:19.419Z,19.23
2018-04-18T23:45:48.617Z,19.47
2018-04-18T23:48:17.070Z,21.43
2018-04-18T23:50:45.463Z,20.77
2018-04-18T23:53:14.597Z,21.30
2018-04-18T23:55:42.945Z,21.20
2018-04-18T23:58:12.144Z,21.13
